Time;durP1;ratioP1;P1;durP2;ratioP2;P2;SDS_P1;SDS_P2;PMS_P1;PMS_P2;Temp;Humidity;BMP_temperature;BMP_pressure;BME280_temperature;BME280_humidity;BME280_pressure;Samples;Min_cycle;Max_cycle;Signal;HPM_P1;HPM_P2
2023/05/15 00:00:13;;;;;;;5.83;5.30;;;10.80;99.90;;;;;;4967275;28;20232;-72
2023/05/15 00:02:39;;;;;;;7.87;6.60;;;10.80;99.90;;;;;;4972523;28;20451;-73
2023/05/15 00:05:08;;;;;;;7.33;5.80;;;10.70;99.90;;;;;;4969850;28;20464;-73
2023/05/15 00:07:35;;;;;;;8.67;5.90;;;10.70;99.90;;;;;;4972456;28;20514;-73
2023/05/15 00:10:00;;;;;;;6.97;6.30;;;10.70;99.90;;;;;;4969920;28;20946;-73
2023/05/15 00:12:26;;;;;;;7.47;6.70;;;10.60;99.90;;;;;;4971701;28;20446;-73
2023/05/15 00:14:52;;;;;;;5.80;5.20;;;10.60;99.90;;;;;;4964192;28;20208;-73
2023/05/15 00:17:17;;;;;;;8.83;6.33;;;10.60;99.90;;;;;;4970892;28;20654;-73
2023/05/15 00:19:43;;;;;;;7.40;6.70;;;10.60;99.90;;;;;;4970584;28;20247;-73
2023/05/15 00:22:08;;;;;;;6.90;6.23;;;10.60;99.90;;;;;;4971752;28;20723;-72
2023/05/15 00:24:34;;;;;;;6.07;5.47;;;10.60;99.90;;;;;;4970757;28;20589;-72
2023/05/15 00:27:00;;;;;;;5.97;5.37;;;10.60;99.90;;;;;;4972846;28;20177;-73
2023/05/15 00:29:25;;;;;;;7.80;5.70;;;10.60;99.90;;;;;;4970782;28;20208;-73
2023/05/15 00:31:51;;;;;;;6.87;5.37;;;10.70;99.90;;;;;;4973331;28;20439;-73
2023/05/15 00:34:16;;;;;;;5.60;5.10;;;10.70;99.90;;;;;;4976749;28;20195;-73
2023/05/15 00:36:43;;;;;;;6.90;5.57;;;10.90;99.90;;;;;;4982187;28;20208;-73
2023/05/15 00:39:08;;;;;;;6.27;5.67;;;11.00;99.90;;;;;;4980804;28;20335;-73
2023/05/15 00:41:35;;;;;;;6.00;5.47;;;11.10;99.90;;;;;;4980400;28;20522;-73
2023/05/15 00:44:01;;;;;;;6.20;5.70;;;11.10;99.90;;;;;;4985670;28;20182;-73
2023/05/15 00:46:29;;;;;;;6.83;5.60;;;11.10;99.90;;;;;;4985354;28;20513;-73
2023/05/15 00:48:56;;;;;;;6.13;5.57;;;11.20;99.90;;;;;;4972599;28;20463;-73
2023/05/15 00:51:22;;;;;;;6.90;6.20;;;11.20;99.90;;;;;;4974014;28;20955;-73
2023/05/15 00:53:51;;;;;;;6.10;5.10;;;11.30;99.90;;;;;;4978684;28;20447;-72
2023/05/15 00:56:17;;;;;;;6.57;6.00;;;11.30;99.90;;;;;;4984691;28;20635;-73
2023/05/15 00:58:45;;;;;;;6.80;6.17;;;11.40;99.90;;;;;;4969750;28;21061;-73
2023/05/15 01:01:12;;;;;;;6.67;6.10;;;11.40;99.90;;;;;;4967053;28;20435;-73
2023/05/15 01:03:38;;;;;;;5.97;5.47;;;11.40;99.90;;;;;;4965645;28;20941;-73
2023/05/15 01:06:04;;;;;;;6.57;6.00;;;11.40;99.90;;;;;;4965160;28;20442;-73
2023/05/15 01:08:46;;;;;;;6.53;6.03;;;11.40;99.90;;;;;;4965783;28;20291;-73
2023/05/15 01:11:13;;;;;;;5.87;5.37;;;11.40;99.90;;;;;;4966382;28;20184;-73
2023/05/15 01:13:39;;;;;;;7.03;6.33;;;11.30;99.90;;;;;;4965337;28;20435;-73
2023/05/15 01:16:06;;;;;;;5.93;5.43;;;11.10;99.90;;;;;;4966124;28;20469;-73
2023/05/15 01:18:32;;;;;;;5.57;5.10;;;11.00;99.90;;;;;;4964421;28;20278;-73
2023/05/15 01:21:00;;;;;;;5.60;5.20;;;10.90;99.90;;;;;;4965694;28;20436;-73
2023/05/15 01:24:03;;;;;;;6.40;5.37;;;10.90;99.90;;;;;;4966345;28;20176;-72
2023/05/15 01:26:57;;;;;;;5.80;5.30;;;10.90;99.90;;;;;;4964857;28;20482;-73
2023/05/15 01:29:44;;;;;;;6.50;5.90;;;10.90;99.90;;;;;;4966096;28;21633;-73
2023/05/15 01:32:19;;;;;;;5.40;4.90;;;10.90;99.90;;;;;;4965220;28;20522;-73
2023/05/15 01:34:57;;;;;;;5.40;4.90;;;10.90;99.90;;;;;;4965029;28;20848;-72
2023/05/15 01:37:25;;;;;;;6.43;5.73;;;11.00;99.90;;;;;;4965979;28;20427;-73
2023/05/15 01:39:59;;;;;;;5.90;5.03;;;11.00;99.90;;;;;;4965697;28;20466;-73
2023/05/15 01:42:30;;;;;;;6.20;5.00;;;11.00;99.90;;;;;;4965917;28;20534;-73
2023/05/15 01:44:56;;;;;;;5.37;4.87;;;11.00;99.90;;;;;;4966091;28;20469;-73
2023/05/15 01:47:30;;;;;;;6.17;5.57;;;11.00;99.90;;;;;;4966001;28;20455;-73
2023/05/15 01:49:58;;;;;;;6.40;5.07;;;11.00;99.90;;;;;;4961687;28;20459;-73
2023/05/15 01:52:33;;;;;;;5.90;5.30;;;11.20;99.90;;;;;;4964067;28;20443;-73
2023/05/15 01:55:01;;;;;;;5.90;5.30;;;11.20;99.90;;;;;;4964549;28;20435;-73
2023/05/15 01:57:28;;;;;;;5.93;5.43;;;11.10;99.90;;;;;;4964030;28;20427;-73
2023/05/15 01:59:56;;;;;;;6.83;5.53;;;11.00;99.90;;;;;;4964131;28;20462;-73
2023/05/15 02:02:22;;;;;;;6.27;5.50;;;11.00;99.90;;;;;;4965389;28;20938;-73
2023/05/15 02:04:49;;;;;;;6.13;5.60;;;10.90;99.90;;;;;;4969056;28;20427;-73
2023/05/15 02:07:15;;;;;;;6.63;6.10;;;11.00;99.90;;;;;;4964376;28;20929;-73
2023/05/15 02:09:42;;;;;;;6.50;5.90;;;11.00;99.90;;;;;;4965605;28;20606;-73
2023/05/15 02:12:09;;;;;;;6.37;5.77;;;11.00;99.90;;;;;;4964738;28;20436;-73
2023/05/15 02:14:36;;;;;;;6.60;5.73;;;11.10;99.90;;;;;;4964720;28;20951;-73
2023/05/15 02:17:01;;;;;;;6.33;5.83;;;11.20;99.90;;;;;;4964109;28;20467;-73
2023/05/15 02:19:28;;;;;;;6.23;5.60;;;11.20;99.90;;;;;;4963002;28;20466;-73
2023/05/15 02:21:53;;;;;;;5.67;5.10;;;11.20;99.90;;;;;;4964271;28;20297;-73
2023/05/15 02:24:19;;;;;;;6.00;5.50;;;11.20;99.90;;;;;;4964866;28;20976;-73
2023/05/15 02:27:01;;;;;;;6.37;5.87;;;11.20;99.90;;;;;;4967367;28;20184;-72
2023/05/15 02:29:41;;;;;;;7.77;5.27;;;11.30;99.90;;;;;;4973207;28;20203;-73
2023/05/15 02:32:12;;;;;;;7.00;5.93;;;11.30;99.90;;;;;;4970801;28;20431;-73
2023/05/15 02:34:40;;;;;;;5.50;5.00;;;11.20;99.90;;;;;;4972614;28;20431;-73
2023/05/15 02:37:10;;;;;;;6.60;6.10;;;11.20;99.90;;;;;;4973229;28;20463;-72
2023/05/15 02:39:37;;;;;;;5.40;4.93;;;11.10;99.90;;;;;;4973104;28;20825;-73
2023/05/15 02:42:04;;;;;;;6.20;5.60;;;11.00;99.90;;;;;;4972204;28;20486;-72
2023/05/15 02:44:30;;;;;;;6.60;5.70;;;10.90;99.90;;;;;;4973427;28;20447;-73
2023/05/15 02:46:57;;;;;;;5.63;5.20;;;10.90;99.90;;;;;;4972112;28;20539;-73
2023/05/15 02:49:22;;;;;;;6.27;5.60;;;10.80;99.90;;;;;;4972926;28;20454;-72
2023/05/15 02:51:48;;;;;;;6.57;5.97;;;10.80;99.90;;;;;;4973261;28;20427;-72
2023/05/15 02:54:14;;;;;;;7.33;6.63;;;10.80;99.90;;;;;;4971691;28;20584;-73
2023/05/15 02:56:39;;;;;;;7.53;6.87;;;10.90;99.90;;;;;;4973253;28;20200;-73
2023/05/15 02:59:05;;;;;;;6.50;5.90;;;10.90;99.90;;;;;;4971719;28;20440;-73
2023/05/15 03:01:30;;;;;;;6.10;5.60;;;11.00;99.90;;;;;;4974618;28;20191;-73
2023/05/15 03:03:56;;;;;;;5.70;5.20;;;11.00;99.90;;;;;;4971911;28;20841;-72
2023/05/15 03:06:21;;;;;;;6.40;5.80;;;11.00;99.90;;;;;;4967728;28;20187;-73
2023/05/15 03:08:47;;;;;;;6.10;5.60;;;10.90;99.90;;;;;;4968037;28;20588;-73
2023/05/15 03:11:12;;;;;;;5.77;5.27;;;10.80;99.90;;;;;;4969244;28;20242;-73
2023/05/15 03:13:38;;;;;;;6.80;6.20;;;10.80;99.90;;;;;;4957949;28;20528;-73
2023/05/15 03:16:04;;;;;;;7.37;6.77;;;10.70;99.90;;;;;;4968370;28;20365;-72
2023/05/15 03:18:29;;;;;;;6.60;6.10;;;10.80;99.90;;;;;;4967614;28;20685;-73
2023/05/15 03:20:55;;;;;;;9.53;6.30;;;10.80;99.90;;;;;;4966478;28;20184;-72
2023/05/15 03:23:20;;;;;;;6.70;6.10;;;10.80;99.90;;;;;;4968057;28;20211;-73
2023/05/15 03:25:46;;;;;;;5.93;5.43;;;10.80;99.90;;;;;;4968091;28;20200;-73
2023/05/15 03:28:11;;;;;;;5.97;5.43;;;10.90;99.90;;;;;;4970318;28;20227;-73
2023/05/15 03:30:37;;;;;;;6.37;5.80;;;10.90;99.90;;;;;;4973635;28;20650;-73
2023/05/15 03:33:03;;;;;;;5.97;5.40;;;10.90;99.90;;;;;;4973342;28;20184;-73
2023/05/15 03:35:29;;;;;;;6.77;6.17;;;11.00;99.90;;;;;;4973246;28;20235;-73
2023/05/15 03:37:55;;;;;;;5.40;5.00;;;11.00;99.90;;;;;;4974527;28;20185;-73
2023/05/15 03:40:20;;;;;;;5.80;5.27;;;11.00;99.90;;;;;;4967256;28;20465;-73
2023/05/15 03:42:46;;;;;;;6.43;5.83;;;11.10;99.90;;;;;;4967912;28;20594;-73
2023/05/15 03:45:11;;;;;;;6.60;6.00;;;11.20;99.90;;;;;;4967745;28;20228;-73
2023/05/15 03:47:37;;;;;;;6.17;5.67;;;11.20;99.90;;;;;;4967529;28;20183;-73
2023/05/15 03:50:02;;;;;;;6.33;5.80;;;11.20;99.90;;;;;;4966956;28;20208;-73
2023/05/15 03:52:28;;;;;;;6.53;5.93;;;11.20;99.90;;;;;;4967535;28;20266;-73
2023/05/15 03:54:54;;;;;;;5.60;5.03;;;11.20;99.90;;;;;;4966980;28;20188;-73
2023/05/15 03:57:19;;;;;;;6.00;5.50;;;11.10;99.90;;;;;;4965526;28;20235;-73
2023/05/15 03:59:45;;;;;;;6.60;6.10;;;11.20;99.90;;;;;;4967447;28;20192;-73
2023/05/15 04:02:10;;;;;;;5.70;5.10;;;11.20;99.90;;;;;;4967147;28;20177;-72
2023/05/15 04:04:37;;;;;;;6.40;5.57;;;11.20;99.90;;;;;;4967894;28;20437;-73
2023/05/15 04:07:04;;;;;;;6.90;6.30;;;11.20;99.90;;;;;;4966950;28;20192;-73
2023/05/15 04:09:29;;;;;;;6.17;5.57;;;11.20;99.90;;;;;;4967114;28;20514;-73
2023/05/15 04:11:55;;;;;;;6.33;5.80;;;11.30;99.90;;;;;;4965641;28;20451;-73
2023/05/15 04:14:20;;;;;;;5.70;5.20;;;11.30;99.90;;;;;;4965789;28;20645;-73
2023/05/15 04:16:46;;;;;;;6.20;5.60;;;11.40;99.90;;;;;;4966907;28;20239;-73
2023/05/15 04:19:11;;;;;;;7.10;5.67;;;11.40;99.90;;;;;;4966076;28;20732;-73
2023/05/15 04:21:37;;;;;;;7.87;6.27;;;11.50;99.90;;;;;;4966621;28;20219;-73
2023/05/15 04:24:03;;;;;;;7.03;6.30;;;11.60;99.90;;;;;;4967421;28;20180;-73
2023/05/15 04:26:28;;;;;;;7.17;6.57;;;11.60;99.90;;;;;;4969788;28;20308;-73
2023/05/15 04:28:55;;;;;;;7.53;6.00;;;11.80;99.90;;;;;;4973067;28;20202;-73
2023/05/15 04:31:21;;;;;;;7.17;6.50;;;12.00;99.90;;;;;;4975186;28;20192;-73
2023/05/15 04:33:46;;;;;;;6.27;5.70;;;12.10;99.90;;;;;;4975500;28;20785;-72
2023/05/15 04:36:12;;;;;;;6.93;5.87;;;12.30;99.90;;;;;;4975488;28;20243;-72
2023/05/15 04:38:37;;;;;;;5.93;5.43;;;12.40;99.90;;;;;;4973468;28;20226;-72
2023/05/15 04:41:03;;;;;;;7.27;6.47;;;12.40;99.90;;;;;;4973681;28;20235;-73
2023/05/15 04:43:28;;;;;;;8.40;7.77;;;12.60;99.90;;;;;;4971498;28;20263;-73
2023/05/15 04:45:54;;;;;;;9.70;8.10;;;12.70;99.90;;;;;;4975160;28;20192;-72
2023/05/15 04:48:20;;;;;;;7.23;6.63;;;12.80;99.90;;;;;;4975077;28;20208;-73
2023/05/15 04:50:45;;;;;;;6.50;6.00;;;12.90;99.90;;;;;;4975183;28;20452;-72
2023/05/15 04:53:11;;;;;;;11.47;6.73;;;13.00;99.90;;;;;;4974050;28;20215;-73
2023/05/15 04:55:36;;;;;;;8.27;6.50;;;13.10;99.90;;;;;;4974081;28;20193;-73
2023/05/15 04:58:02;;;;;;;9.00;6.10;;;13.20;99.90;;;;;;4969593;28;20612;-73
2023/05/15 05:00:28;;;;;;;9.47;8.60;;;13.30;99.90;;;;;;4971583;28;20188;-73
2023/05/15 05:02:53;;;;;;;7.20;6.50;;;13.40;99.90;;;;;;4974885;28;20607;-73
2023/05/15 05:05:20;;;;;;;10.50;9.43;;;13.50;99.90;;;;;;4973059;28;21015;-73
2023/05/15 05:07:45;;;;;;;7.80;7.07;;;13.60;99.90;;;;;;4968489;28;20227;-73
2023/05/15 05:10:11;;;;;;;8.37;7.47;;;13.70;99.90;;;;;;4965807;28;20467;-73
2023/05/15 05:12:36;;;;;;;9.80;7.23;;;13.80;99.90;;;;;;4966015;28;20180;-73
2023/05/15 05:15:02;;;;;;;7.50;6.83;;;13.90;99.90;;;;;;4964858;28;20196;-73
2023/05/15 05:17:29;;;;;;;8.03;6.70;;;14.00;99.90;;;;;;4965210;28;20176;-73
2023/05/15 05:19:54;;;;;;;6.90;6.30;;;14.00;99.90;;;;;;4963410;28;21186;-71
2023/05/15 05:22:20;;;;;;;7.07;6.37;;;14.00;99.90;;;;;;4967162;28;20428;-71
2023/05/15 05:24:45;;;;;;;8.97;6.03;;;14.00;99.90;;;;;;4966750;28;20168;-72
2023/05/15 05:27:11;;;;;;;7.37;6.70;;;13.90;99.90;;;;;;4974199;28;20200;-72
2023/05/15 05:29:37;;;;;;;7.33;6.63;;;14.00;99.90;;;;;;4974178;28;20196;-72
2023/05/15 05:32:02;;;;;;;7.97;7.17;;;14.00;99.90;;;;;;4973720;28;20545;-72
2023/05/15 05:34:28;;;;;;;7.53;6.83;;;14.10;99.90;;;;;;4974562;28;20192;-72
2023/05/15 05:36:53;;;;;;;7.43;6.83;;;14.20;99.90;;;;;;4974090;28;20262;-72
2023/05/15 05:39:20;;;;;;;7.53;6.80;;;14.30;99.90;;;;;;4974064;28;20196;-72
2023/05/15 05:41:45;;;;;;;7.70;7.10;;;14.20;99.90;;;;;;4965231;28;20191;-71
2023/05/15 05:44:11;;;;;;;8.10;7.30;;;14.00;99.90;;;;;;4964920;28;20448;-71
2023/05/15 05:46:36;;;;;;;8.37;7.57;;;13.90;99.90;;;;;;4970803;28;20180;-71
2023/05/15 05:49:02;;;;;;;11.10;7.97;;;14.00;99.90;;;;;;4970260;28;20204;-71
2023/05/15 05:51:27;;;;;;;8.23;7.53;;;14.10;99.90;;;;;;4969041;28;20212;-72
2023/05/15 05:53:53;;;;;;;9.43;7.90;;;14.10;99.90;;;;;;4968715;28;20180;-72
2023/05/15 05:56:18;;;;;;;7.90;7.20;;;14.20;99.90;;;;;;4965028;28;20209;-71
2023/05/15 05:58:44;;;;;;;8.23;7.43;;;14.30;99.90;;;;;;4963152;28;20772;-73
2023/05/15 06:01:10;;;;;;;8.37;7.67;;;14.30;99.90;;;;;;4962426;28;20180;-73
2023/05/15 06:03:36;;;;;;;8.13;7.47;;;14.30;99.90;;;;;;4964662;28;20248;-73
2023/05/15 06:06:02;;;;;;;8.90;8.17;;;14.50;99.90;;;;;;4963917;28;20214;-73
2023/05/15 06:08:28;;;;;;;8.53;7.83;;;14.60;99.90;;;;;;4963337;28;22774;-73
2023/05/15 06:10:54;;;;;;;10.77;9.83;;;14.50;99.90;;;;;;4962874;28;20208;-72
2023/05/15 06:13:19;;;;;;;10.17;8.57;;;14.40;99.90;;;;;;4966688;28;20474;-75
2023/05/15 06:15:46;;;;;;;8.90;8.00;;;14.40;99.90;;;;;;4970214;28;20239;-75
2023/05/15 06:18:11;;;;;;;9.30;8.40;;;14.50;99.90;;;;;;4967854;28;20193;-74
2023/05/15 06:20:37;;;;;;;9.67;8.80;;;14.60;99.90;;;;;;4969091;28;20511;-75
2023/05/15 06:23:02;;;;;;;11.70;10.60;;;14.80;99.90;;;;;;4973176;28;20181;-75
2023/05/15 06:25:28;;;;;;;9.17;8.37;;;14.90;99.90;;;;;;4973081;28;20642;-74
2023/05/15 06:27:54;;;;;;;11.00;9.53;;;14.90;99.90;;;;;;4972053;28;20596;-75
2023/05/15 06:30:20;;;;;;;9.93;8.93;;;15.00;99.90;;;;;;4969709;28;20199;-75
2023/05/15 06:32:45;;;;;;;9.37;8.50;;;15.40;99.90;;;;;;4974025;28;20646;-75
2023/05/15 06:35:11;;;;;;;8.80;8.00;;;15.70;99.90;;;;;;4958320;28;20180;-74
2023/05/15 06:37:37;;;;;;;9.77;8.97;;;15.90;99.90;;;;;;4954427;28;20204;-74
2023/05/15 06:40:04;;;;;;;9.50;8.60;;;15.80;99.90;;;;;;4955682;28;20675;-78
2023/05/15 06:42:30;;;;;;;10.30;9.47;;;15.90;99.90;;;;;;4974949;28;20511;-78
2023/05/15 06:44:55;;;;;;;10.40;9.30;;;16.10;99.90;;;;;;4975244;28;20455;-78
2023/05/15 06:47:21;;;;;;;8.70;8.00;;;16.10;99.90;;;;;;4975366;28;20542;-77
2023/05/15 06:49:46;;;;;;;8.47;7.60;;;16.10;99.90;;;;;;4975514;28;20204;-78
2023/05/15 06:52:12;;;;;;;8.83;7.90;;;16.10;99.90;;;;;;4975796;28;20176;-79
2023/05/15 06:54:39;;;;;;;7.70;7.10;;;16.30;99.90;;;;;;4994939;28;20648;-78
2023/05/15 06:57:05;;;;;;;8.47;7.67;;;16.40;99.90;;;;;;4989037;28;20207;-78
2023/05/15 06:59:33;;;;;;;7.53;6.93;;;16.50;99.90;;;;;;4975537;28;20801;-78
2023/05/15 07:01:59;;;;;;;8.80;7.27;;;16.70;99.90;;;;;;4976209;28;20287;-78
2023/05/15 07:04:25;;;;;;;8.23;7.63;;;16.90;99.90;;;;;;4975746;28;20558;-78
2023/05/15 07:06:50;;;;;;;8.07;7.33;;;16.80;99.90;;;;;;4975014;28;20203;-78
2023/05/15 07:09:16;;;;;;;7.13;6.63;;;16.80;99.90;;;;;;4975290;28;20494;-77
2023/05/15 07:11:41;;;;;;;8.87;8.27;;;16.90;99.90;;;;;;4974104;28;20255;-78
2023/05/15 07:14:07;;;;;;;6.50;5.90;;;17.00;99.90;;;;;;4974992;28;20184;-78
2023/05/15 07:16:32;;;;;;;7.97;7.27;;;17.10;99.90;;;;;;4975078;28;20204;-78
2023/05/15 07:18:59;;;;;;;6.50;6.00;;;17.10;99.90;;;;;;4974481;28;20328;-79
2023/05/15 07:21:24;;;;;;;6.70;6.10;;;17.30;99.90;;;;;;4975072;28;20677;-79
2023/05/15 07:23:50;;;;;;;6.93;6.33;;;17.60;99.90;;;;;;4975379;28;20443;-78
2023/05/15 07:26:15;;;;;;;5.43;5.03;;;17.90;99.90;;;;;;4975245;28;20601;-77
2023/05/15 07:28:41;;;;;;;5.93;5.53;;;17.80;99.90;;;;;;4974361;28;20216;-78
2023/05/15 07:31:07;;;;;;;7.07;6.40;;;17.70;99.90;;;;;;4974042;28;20207;-78
2023/05/15 07:33:32;;;;;;;6.60;6.00;;;17.30;99.90;;;;;;4972190;28;20184;-78
2023/05/15 07:35:58;;;;;;;6.07;5.57;;;17.30;99.90;;;;;;4974884;28;20460;-78
2023/05/15 07:38:24;;;;;;;5.10;4.63;;;17.70;99.90;;;;;;4974376;28;20206;-78
2023/05/15 07:40:49;;;;;;;4.73;4.33;;;18.00;99.90;;;;;;4974726;28;20185;-78
2023/05/15 07:43:15;;;;;;;4.23;3.93;;;18.30;99.90;;;;;;4974499;28;20959;-78
2023/05/15 07:45:40;;;;;;;5.17;4.67;;;18.80;99.90;;;;;;4973494;28;20219;-78
2023/05/15 07:48:13;;;;;;;4.90;4.60;;;18.80;99.90;;;;;;4975691;28;20243;-78
2023/05/15 07:50:39;;;;;;;4.57;4.13;;;19.10;99.90;;;;;;4978216;28;20184;-79
2023/05/15 07:53:05;;;;;;;4.77;4.37;;;19.30;99.90;;;;;;4977326;28;20522;-79
2023/05/15 07:55:30;;;;;;;5.63;4.60;;;19.60;99.90;;;;;;4977465;28;20577;-78
2023/05/15 07:57:56;;;;;;;4.93;4.47;;;19.40;99.90;;;;;;4977858;28;20620;-79
2023/05/15 08:00:22;;;;;;;4.40;4.10;;;19.30;99.90;;;;;;4977146;28;20204;-79
2023/05/15 08:02:47;;;;;;;4.30;3.93;;;19.70;99.90;;;;;;4976701;28;20462;-78
2023/05/15 08:05:13;;;;;;;10.23;4.73;;;19.60;99.90;;;;;;4977357;28;20176;-77
2023/05/15 08:07:39;;;;;;;5.07;4.67;;;19.40;99.90;;;;;;4977902;28;20196;-78
2023/05/15 08:10:05;;;;;;;4.50;4.10;;;19.30;99.90;;;;;;4978593;28;20703;-78
2023/05/15 08:12:31;;;;;;;4.83;4.43;;;19.20;99.90;;;;;;4987564;28;20650;-78
2023/05/15 08:14:57;;;;;;;4.40;4.10;;;19.30;99.90;;;;;;4986149;28;20471;-78
2023/05/15 08:17:23;;;;;;;4.73;4.30;;;19.50;99.90;;;;;;4983489;28;20263;-78
2023/05/15 08:19:49;;;;;;;5.37;4.87;;;19.50;99.90;;;;;;4963059;28;20270;-79
2023/05/15 08:22:15;;;;;;;4.87;4.53;;;19.30;99.90;;;;;;4976023;28;20810;-79
2023/05/15 08:24:41;;;;;;;4.73;4.33;;;18.80;99.90;;;;;;4973973;28;20176;-76
2023/05/15 08:27:07;;;;;;;4.93;4.43;;;18.80;99.90;;;;;;4976231;28;20192;-79
2023/05/15 08:29:34;;;;;;;4.93;4.53;;;18.90;99.90;;;;;;4977025;28;20204;-78
2023/05/15 08:32:00;;;;;;;5.23;4.83;;;19.30;99.90;;;;;;4977895;28;20420;-77
2023/05/15 08:34:26;;;;;;;5.37;4.93;;;19.50;99.90;;;;;;4977786;28;20423;-77
2023/05/15 08:36:51;;;;;;;7.20;5.00;;;19.60;99.90;;;;;;4977416;28;20290;-77
2023/05/15 08:39:17;;;;;;;5.77;5.30;;;19.30;99.90;;;;;;4977702;28;20961;-79
2023/05/15 08:41:54;;;;;;;5.73;4.67;;;19.30;99.90;;;;;;4992083;28;20201;-77
2023/05/15 08:44:21;;;;;;;5.87;5.47;;;19.60;99.90;;;;;;4976192;28;20164;-78
2023/05/15 08:46:47;;;;;;;4.83;4.43;;;19.40;99.90;;;;;;4977832;28;20928;-79
2023/05/15 08:49:22;;;;;;;5.50;5.10;;;19.70;99.90;;;;;;4976024;28;20808;-76
2023/05/15 08:51:48;;;;;;;8.50;7.80;;;19.60;99.90;;;;;;4975927;28;20411;-77
2023/05/15 08:54:15;;;;;;;5.80;5.40;;;19.70;99.90;;;;;;4975532;28;20446;-77
2023/05/15 08:56:41;;;;;;;5.43;5.00;;;20.10;99.90;;;;;;4966355;28;20204;-77
2023/05/15 08:59:06;;;;;;;4.80;4.43;;;20.60;99.90;;;;;;4969756;28;20462;-77
2023/05/15 09:01:32;;;;;;;5.73;4.00;;;21.10;99.90;;;;;;4975526;28;20459;-77
2023/05/15 09:03:58;;;;;;;5.60;5.10;;;21.20;99.90;;;;;;4966647;28;20683;-77
2023/05/15 09:06:24;;;;;;;4.33;4.03;;;21.20;99.90;;;;;;4974840;28;20531;-78
2023/05/15 09:08:54;;;;;;;6.13;5.63;;;20.60;99.90;;;;;;4976964;28;20207;-77
2023/05/15 09:11:21;;;;;;;6.17;4.70;;;20.60;99.90;;;;;;4975287;28;20435;-77
2023/05/15 09:13:46;;;;;;;7.00;5.47;;;20.60;99.90;;;;;;4960000;28;20427;-78
2023/05/15 09:16:12;;;;;;;5.53;5.13;;;20.80;99.90;;;;;;4963436;28;20806;-74
2023/05/15 09:18:38;;;;;;;5.00;4.70;;;20.70;99.90;;;;;;4973332;28;20216;-74
2023/05/15 09:21:24;;;;;;;6.67;6.07;;;20.50;99.90;;;;;;4972492;28;20230;-74
2023/05/15 09:23:51;;;;;;;5.70;5.30;;;20.40;99.90;;;;;;4965788;28;20435;-74
2023/05/15 09:26:16;;;;;;;5.77;4.93;;;20.50;99.90;;;;;;4973794;28;20427;-74
2023/05/15 09:28:42;;;;;;;5.47;5.07;;;21.20;99.90;;;;;;4972705;28;20462;-74
2023/05/15 09:31:08;;;;;;;6.03;5.23;;;21.80;99.90;;;;;;4974407;28;20594;-74
2023/05/15 09:33:41;;;;;;;5.23;4.93;;;21.90;99.90;;;;;;4973017;28;20670;-74
2023/05/15 09:36:07;;;;;;;5.90;5.40;;;21.50;99.90;;;;;;4974370;28;20604;-74
2023/05/15 09:38:38;;;;;;;6.37;5.87;;;20.90;99.90;;;;;;4971451;28;21146;-73
2023/05/15 09:41:06;;;;;;;5.43;5.07;;;20.70;99.90;;;;;;4974255;28;21002;-73
2023/05/15 09:43:36;;;;;;;5.77;5.37;;;20.70;99.90;;;;;;4973228;28;20518;-74
2023/05/15 09:46:02;;;;;;;5.50;5.10;;;20.20;99.90;;;;;;4973395;28;20514;-73
2023/05/15 09:48:30;;;;;;;5.43;5.03;;;20.10;99.90;;;;;;4972117;28;20499;-74
2023/05/15 09:50:56;;;;;;;5.90;5.40;;;20.30;99.90;;;;;;4973353;28;20451;-74
2023/05/15 09:53:22;;;;;;;6.03;5.63;;;20.00;99.90;;;;;;4974097;28;20439;-74
2023/05/15 09:55:48;;;;;;;5.70;5.20;;;20.70;99.90;;;;;;4972946;28;20463;-73
2023/05/15 09:58:16;;;;;;;5.00;4.60;;;21.30;99.90;;;;;;4972068;28;20451;-74
2023/05/15 10:00:43;;;;;;;4.53;4.23;;;22.60;99.90;;;;;;4973266;28;20539;-72
2023/05/15 10:03:09;;;;;;;5.20;4.90;;;24.30;97.00;;;;;;4973766;28;20839;-73
2023/05/15 10:05:35;;;;;;;4.97;4.67;;;24.50;93.60;;;;;;4972338;28;20790;-74
2023/05/15 10:08:01;;;;;;;5.03;4.73;;;24.60;92.70;;;;;;4973714;28;20450;-73
2023/05/15 10:10:28;;;;;;;5.43;4.93;;;24.30;91.40;;;;;;4972167;28;20176;-72
2023/05/15 10:12:57;;;;;;;4.30;4.00;;;25.00;90.40;;;;;;4968677;28;20180;-73
2023/05/15 10:15:23;;;;;;;4.13;3.90;;;27.00;84.80;;;;;;4973481;28;20432;-72
2023/05/15 10:17:50;;;;;;;4.33;3.90;;;27.80;71.10;;;;;;4972624;28;20454;-72
2023/05/15 10:20:18;;;;;;;4.57;4.27;;;27.00;68.20;;;;;;4971519;28;20471;-74
2023/05/15 10:22:55;;;;;;;4.50;4.20;;;25.70;72.40;;;;;;4972957;28;20801;-73
2023/05/15 10:25:44;;;;;;;4.53;4.13;;;24.30;74.20;;;;;;4972487;28;22351;-73
2023/05/15 10:28:10;;;;;;;5.43;5.13;;;23.70;78.60;;;;;;4968165;28;20494;-74
2023/05/15 10:30:37;;;;;;;4.80;3.93;;;24.70;76.30;;;;;;4971843;28;20439;-73
2023/05/15 10:33:04;;;;;;;4.30;4.00;;;23.90;76.10;;;;;;4973573;28;20832;-72
2023/05/15 10:35:30;;;;;;;4.73;4.40;;;23.70;78.40;;;;;;4973405;28;20558;-72
2023/05/15 10:37:56;;;;;;;3.70;3.50;;;24.90;75.70;;;;;;4972432;28;20451;-70
2023/05/15 10:40:23;;;;;;;4.07;3.73;;;27.50;68.50;;;;;;4973260;28;20447;-70
2023/05/15 10:42:49;;;;;;;3.97;3.67;;;29.70;69.50;;;;;;4973415;28;20439;-70
2023/05/15 10:45:15;;;;;;;4.13;3.83;;;31.40;58.30;;;;;;4973516;28;20435;-70
2023/05/15 10:47:41;;;;;;;4.40;3.57;;;31.00;53.30;;;;;;4960887;28;20419;-70
2023/05/15 10:50:08;;;;;;;3.90;3.50;;;31.00;50.50;;;;;;4972920;28;20989;-70
2023/05/15 10:52:37;;;;;;;3.90;3.60;;;30.20;50.20;;;;;;4973158;28;20486;-69
2023/05/15 10:55:13;;;;;;;5.20;4.80;;;30.80;51.20;;;;;;4972256;28;20428;-70
2023/05/15 10:57:39;;;;;;;4.23;4.00;;;30.60;50.90;;;;;;4973322;28;20809;-70
2023/05/15 11:00:26;;;;;;;4.30;3.87;;;29.90;52.00;;;;;;4970987;28;20461;-70
2023/05/15 11:02:55;;;;;;;3.37;3.17;;;27.30;54.20;;;;;;4965292;28;20184;-70
2023/05/15 11:05:21;;;;;;;4.03;3.83;;;28.10;53.70;;;;;;4973188;28;20831;-71
2023/05/15 11:08:14;;;;;;;4.03;3.30;;;29.50;51.80;;;;;;4971378;28;20486;-71
2023/05/15 11:10:40;;;;;;;3.60;3.40;;;31.50;48.30;;;;;;4971458;28;20188;-69
2023/05/15 11:13:05;;;;;;;3.90;3.70;;;31.00;48.10;;;;;;4970043;28;20855;-79
2023/05/15 11:15:44;;;;;;;3.93;2.97;;;31.00;46.50;;;;;;4971571;28;20833;-79
2023/05/15 11:18:10;;;;;;;3.03;2.73;;;30.10;46.00;;;;;;4971877;28;20207;-78
2023/05/15 11:20:39;;;;;;;4.50;3.73;;;29.60;46.40;;;;;;4970459;28;20538;-78
2023/05/15 11:23:05;;;;;;;3.70;3.50;;;30.20;46.40;;;;;;4973546;28;20222;-78
2023/05/15 11:25:33;;;;;;;3.13;2.93;;;30.90;45.70;;;;;;4976188;28;20439;-78
2023/05/15 11:27:58;;;;;;;3.10;2.90;;;30.40;46.20;;;;;;4976065;28;20532;-77
2023/05/15 11:30:38;;;;;;;3.33;3.13;;;29.70;45.30;;;;;;4974046;28;20513;-78
2023/05/15 11:33:08;;;;;;;2.77;2.67;;;30.20;44.70;;;;;;4975991;28;20218;-78
2023/05/15 11:35:37;;;;;;;4.03;3.70;;;31.30;44.50;;;;;;4975189;28;20817;-78
2023/05/15 11:38:08;;;;;;;3.83;3.63;;;32.80;43.80;;;;;;4975826;28;20521;-75
2023/05/15 11:40:47;;;;;;;4.17;3.87;;;33.60;40.50;;;;;;4975768;28;20443;-73
2023/05/15 11:43:17;;;;;;;4.90;4.60;;;34.10;40.20;;;;;;4975649;28;20458;-73
2023/05/15 11:45:44;;;;;;;5.63;3.80;;;34.70;40.30;;;;;;4974848;28;20443;-73
2023/05/15 11:48:13;;;;;;;8.67;3.60;;;35.20;37.30;;;;;;4975484;28;20443;-72
2023/05/15 11:50:41;;;;;;;3.80;3.60;;;34.60;37.70;;;;;;4973849;28;20439;-74
2023/05/15 11:53:08;;;;;;;3.20;3.00;;;33.80;34.40;;;;;;4975393;28;20430;-74
2023/05/15 11:55:36;;;;;;;3.00;2.90;;;32.60;36.00;;;;;;4973832;28;20506;-74
2023/05/15 11:58:03;;;;;;;3.63;3.37;;;33.90;37.20;;;;;;4974695;28;20533;-73
2023/05/15 12:00:29;;;;;;;3.10;2.90;;;31.80;37.20;;;;;;4975163;28;20575;-73
2023/05/15 12:02:55;;;;;;;2.73;2.53;;;30.20;39.40;;;;;;4974437;28;20443;-73
2023/05/15 12:05:21;;;;;;;3.50;3.10;;;28.90;40.30;;;;;;4975961;28;20423;-73
2023/05/15 12:07:47;;;;;;;2.60;2.47;;;28.90;42.30;;;;;;4974320;28;20196;-73
2023/05/15 12:10:13;;;;;;;3.57;3.27;;;29.00;41.20;;;;;;4974427;28;20490;-73
2023/05/15 12:12:42;;;;;;;3.60;3.30;;;31.90;40.60;;;;;;4974522;28;20188;-73
2023/05/15 12:15:12;;;;;;;3.27;3.00;;;33.60;38.20;;;;;;4975279;28;20426;-77
2023/05/15 12:17:39;;;;;;;3.57;3.27;;;35.40;36.80;;;;;;4983155;28;20450;-76
2023/05/15 12:20:08;;;;;;;4.00;2.90;;;35.20;35.90;;;;;;4973172;28;20498;-78
2023/05/15 12:22:43;;;;;;;4.97;2.80;;;33.70;36.10;;;;;;4973196;28;20435;-79
2023/05/15 12:25:14;;;;;;;3.23;2.90;;;32.20;35.90;;;;;;4975634;28;20517;-77
2023/05/15 12:27:40;;;;;;;3.20;3.00;;;30.60;37.40;;;;;;4973753;28;20502;-77
2023/05/15 12:30:06;;;;;;;4.27;3.40;;;31.10;38.50;;;;;;4975106;28;20463;-78
2023/05/15 12:32:34;;;;;;;4.03;3.73;;;31.90;38.90;;;;;;4975264;28;20169;-78
2023/05/15 12:35:03;;;;;;;4.27;3.97;;;32.80;38.80;;;;;;4975757;28;20503;-78
2023/05/15 12:37:34;;;;;;;3.30;3.10;;;34.60;37.50;;;;;;4974722;28;20472;-77
2023/05/15 12:40:09;;;;;;;3.50;3.30;;;36.30;35.70;;;;;;4958911;28;20459;-79
2023/05/15 12:42:41;;;;;;;3.70;3.33;;;35.10;35.00;;;;;;4976174;28;20600;-78
2023/05/15 12:45:15;;;;;;;3.33;3.13;;;34.10;34.20;;;;;;4975373;28;20416;-78